Página principal
METAR-TAF:

METAR-TAF

Aeroportos :

Pavlodar, Cazaquistão

latitude: 52-11-42N, longitude: 077-04-26E, altura: 125 m

Observação actual do tempo

O boletim foi feito há 38 minutos, às 11:00 UTC
Vento 10 kt de noroeste, variando entre oeste e norte
Temperatura 25°C
Humidade 54%
Pressão 1007 hPa
Visibilidade 10 km ou mais
sem nuvens abaixo de 1500 metros e sem cumulonimbus

METAR: UASP 221100Z 31005MPS 260V350 CAVOK 25/15 Q1007 NOSIG RMK QFE744/0992

Hora: 17:38 (11:38 UTC)

Previsão

O boletim foi feito há 37 minutos, às 11:01 UTC
Previsão válida de 22 às 12 UTC a 22 às 21 UTC
Vento 6 kt de noroeste com rajadas de 16 kt
Visibilidade 10 km ou mais
Nuvens dispersasa uma altura de 2000 ft, Cumulonimbus.
Temporariamente
de 22 às 12 UTC a 22 às 16 UTC
Vento 6 kt de oeste com rajadas de 16 kt

TAF: UASP 221101Z 2212/2221 32003G08MPS 9999 SCT020CB TEMPO 2212/2216 28003G08MPS

Observações e previsões do tempo de mais de 4000 aeroportos (mensagens METAR e TAF).

As estações disponíveis são os pontos amarelos e vermelhos sobre o mapa.

Mova o rato sobre o mapa para ver o nome da estação.

Depois clique no ponto para visualizar as observações e previsões meteorológicas.

Para alterar o mapa : clique nos botões verdes com uma cruz preta para aumentar o zoom; no botão verde com uma pitada de zoom; ou nas setas verdes para mapas adjacentes.


METAR-TAF: